sensor_id;sensor_type;location;lat;lon;timestamp;P1;P2;P0
47810;PMS5003;33575;52.600;7.318;2023-11-18T00:01:53;44;44;
47810;PMS5003;33575;52.600;7.318;2023-11-18T00:04:24;54;43;
47810;PMS5003;33575;52.600;7.318;2023-11-18T00:06:54;50;42;
47810;PMS5003;33575;52.600;7.318;2023-11-18T00:09:24;50;40;
47810;PMS5003;33575;52.600;7.318;2023-11-18T00:11:55;46;38;
47810;PMS5003;33575;52.600;7.318;2023-11-18T00:14:25;49;45;
47810;PMS5003;33575;52.600;7.318;2023-11-18T00:16:55;52;43;
47810;PMS5003;33575;52.600;7.318;2023-11-18T00:19:26;47;39;
47810;PMS5003;33575;52.600;7.318;2023-11-18T00:21:56;48;39;
47810;PMS5003;33575;52.600;7.318;2023-11-18T00:24:26;51;41;
47810;PMS5003;33575;52.600;7.318;2023-11-18T00:26:57;45;40;
47810;PMS5003;33575;52.600;7.318;2023-11-18T00:29:27;47;41;
47810;PMS5003;33575;52.600;7.318;2023-11-18T00:31:58;47;44;
47810;PMS5003;33575;52.600;7.318;2023-11-18T00:34:28;50;42;
47810;PMS5003;33575;52.600;7.318;2023-11-18T00:36:59;40;38;
47810;PMS5003;33575;52.600;7.318;2023-11-18T00:39:29;44;39;
47810;PMS5003;33575;52.600;7.318;2023-11-18T00:41:59;46;37;
47810;PMS5003;33575;52.600;7.318;2023-11-18T00:44:29;42;41;
47810;PMS5003;33575;52.600;7.318;2023-11-18T00:47:00;47;44;
47810;PMS5003;33575;52.600;7.318;2023-11-18T00:49:30;45;40;
47810;PMS5003;33575;52.600;7.318;2023-11-18T00:52:01;48;41;
47810;PMS5003;33575;52.600;7.318;2023-11-18T00:54:32;55;44;
47810;PMS5003;33575;52.600;7.318;2023-11-18T00:57:02;47;44;
47810;PMS5003;33575;52.600;7.318;2023-11-18T00:59:32;51;37;
47810;PMS5003;33575;52.600;7.318;2023-11-18T01:02:02;44;41;
47810;PMS5003;33575;52.600;7.318;2023-11-18T01:04:33;47;41;
47810;PMS5003;33575;52.600;7.318;2023-11-18T01:07:03;49;45;
47810;PMS5003;33575;52.600;7.318;2023-11-18T01:09:33;51;43;
47810;PMS5003;33575;52.600;7.318;2023-11-18T01:12:09;53;44;
47810;PMS5003;33575;52.600;7.318;2023-11-18T01:14:35;44;39;
47810;PMS5003;33575;52.600;7.318;2023-11-18T01:17:05;43;36;
47810;PMS5003;33575;52.600;7.318;2023-11-18T01:19:35;46;43;
47810;PMS5003;33575;52.600;7.318;2023-11-18T01:22:06;44;42;
47810;PMS5003;33575;52.600;7.318;2023-11-18T01:24:36;39;36;
47810;PMS5003;33575;52.600;7.318;2023-11-18T01:27:06;50;39;
47810;PMS5003;33575;52.600;7.318;2023-11-18T01:29:36;44;40;
47810;PMS5003;33575;52.600;7.318;2023-11-18T01:32:07;46;37;
47810;PMS5003;33575;52.600;7.318;2023-11-18T01:34:38;38;35;
47810;PMS5003;33575;52.600;7.318;2023-11-18T01:37:08;46;38;
47810;PMS5003;33575;52.600;7.318;2023-11-18T01:39:38;45;40;
47810;PMS5003;33575;52.600;7.318;2023-11-18T01:42:09;48;34;
47810;PMS5003;33575;52.600;7.318;2023-11-18T01:44:39;40;34;
47810;PMS5003;33575;52.600;7.318;2023-11-18T01:47:09;48;39;
47810;PMS5003;33575;52.600;7.318;2023-11-18T01:49:40;47;39;
47810;PMS5003;33575;52.600;7.318;2023-11-18T01:52:10;44;38;
47810;PMS5003;33575;52.600;7.318;2023-11-18T01:54:40;38;36;
47810;PMS5003;33575;52.600;7.318;2023-11-18T01:57:11;43;40;
47810;PMS5003;33575;52.600;7.318;2023-11-18T01:59:41;48;39;
47810;PMS5003;33575;52.600;7.318;2023-11-18T02:02:12;47;41;
47810;PMS5003;33575;52.600;7.318;2023-11-18T02:04:42;49;40;
47810;PMS5003;33575;52.600;7.318;2023-11-18T02:07:13;45;42;
47810;PMS5003;33575;52.600;7.318;2023-11-18T02:09:43;47;42;
47810;PMS5003;33575;52.600;7.318;2023-11-18T02:12:16;48;41;
47810;PMS5003;33575;52.600;7.318;2023-11-18T02:14:44;50;41;
47810;PMS5003;33575;52.600;7.318;2023-11-18T02:17:16;47;43;
47810;PMS5003;33575;52.600;7.318;2023-11-18T02:19:45;41;38;
47810;PMS5003;33575;52.600;7.318;2023-11-18T02:22:16;50;42;
47810;PMS5003;33575;52.600;7.318;2023-11-18T02:24:46;48;36;
47810;PMS5003;33575;52.600;7.318;2023-11-18T02:27:17;50;41;
47810;PMS5003;33575;52.600;7.318;2023-11-18T02:29:47;53;42;
47810;PMS5003;33575;52.600;7.318;2023-11-18T02:32:18;47;40;
47810;PMS5003;33575;52.600;7.318;2023-11-18T02:34:51;44;40;
47810;PMS5003;33575;52.600;7.318;2023-11-18T02:37:19;47;43;
47810;PMS5003;33575;52.600;7.318;2023-11-18T02:39:50;45;37;
47810;PMS5003;33575;52.600;7.318;2023-11-18T02:42:19;51;42;
47810;PMS5003;33575;52.600;7.318;2023-11-18T02:44:50;48;40;
47810;PMS5003;33575;52.600;7.318;2023-11-18T02:47:20;37;34;
47810;PMS5003;33575;52.600;7.318;2023-11-18T02:49:53;43;38;
47810;PMS5003;33575;52.600;7.318;2023-11-18T02:52:20;46;37;
47810;PMS5003;33575;52.600;7.318;2023-11-18T02:54:50;52;41;
47810;PMS5003;33575;52.600;7.318;2023-11-18T02:57:20;42;38;
47810;PMS5003;33575;52.600;7.318;2023-11-18T02:59:50;53;41;
47810;PMS5003;33575;52.600;7.318;2023-11-18T03:02:21;45;37;
47810;PMS5003;33575;52.600;7.318;2023-11-18T03:04:51;52;43;
47810;PMS5003;33575;52.600;7.318;2023-11-18T03:07:22;51;44;
47810;PMS5003;33575;52.600;7.318;2023-11-18T03:09:53;52;39;
47810;PMS5003;33575;52.600;7.318;2023-11-18T03:12:28;48;43;
47810;PMS5003;33575;52.600;7.318;2023-11-18T03:14:54;50;40;
47810;PMS5003;33575;52.600;7.318;2023-11-18T03:17:24;43;39;
47810;PMS5003;33575;52.600;7.318;2023-11-18T03:19:54;48;37;
47810;PMS5003;33575;52.600;7.318;2023-11-18T03:22:25;48;41;
47810;PMS5003;33575;52.600;7.318;2023-11-18T03:24:56;51;39;
47810;PMS5003;33575;52.600;7.318;2023-11-18T03:27:26;36;35;
47810;PMS5003;33575;52.600;7.318;2023-11-18T03:29:57;42;37;
47810;PMS5003;33575;52.600;7.318;2023-11-18T03:32:28;43;39;
47810;PMS5003;33575;52.600;7.318;2023-11-18T03:34:59;54;40;
47810;PMS5003;33575;52.600;7.318;2023-11-18T03:37:29;42;38;
47810;PMS5003;33575;52.600;7.318;2023-11-18T03:39:59;46;38;
47810;PMS5003;33575;52.600;7.318;2023-11-18T03:42:30;42;38;
47810;PMS5003;33575;52.600;7.318;2023-11-18T03:45:00;49;39;
47810;PMS5003;33575;52.600;7.318;2023-11-18T03:47:31;51;41;
47810;PMS5003;33575;52.600;7.318;2023-11-18T03:50:02;53;39;
47810;PMS5003;33575;52.600;7.318;2023-11-18T03:52:32;43;35;
47810;PMS5003;33575;52.600;7.318;2023-11-18T03:55:03;45;37;
47810;PMS5003;33575;52.600;7.318;2023-11-18T03:57:33;44;38;
47810;PMS5003;33575;52.600;7.318;2023-11-18T04:00:04;47;34;
47810;PMS5003;33575;52.600;7.318;2023-11-18T04:02:34;36;34;
47810;PMS5003;33575;52.600;7.318;2023-11-18T04:05:05;44;39;
47810;PMS5003;33575;52.600;7.318;2023-11-18T04:07:35;37;31;
47810;PMS5003;33575;52.600;7.318;2023-11-18T04:10:06;42;33;
47810;PMS5003;33575;52.600;7.318;2023-11-18T04:12:36;41;39;
47810;PMS5003;33575;52.600;7.318;2023-11-18T04:15:07;40;36;
47810;PMS5003;33575;52.600;7.318;2023-11-18T04:17:37;51;41;
47810;PMS5003;33575;52.600;7.318;2023-11-18T04:20:09;45;38;
47810;PMS5003;33575;52.600;7.318;2023-11-18T04:22:39;41;36;
47810;PMS5003;33575;52.600;7.318;2023-11-18T04:25:08;38;36;
47810;PMS5003;33575;52.600;7.318;2023-11-18T04:27:38;43;38;
47810;PMS5003;33575;52.600;7.318;2023-11-18T04:30:09;35;34;
47810;PMS5003;33575;52.600;7.318;2023-11-18T04:32:39;47;38;
47810;PMS5003;33575;52.600;7.318;2023-11-18T04:35:10;45;34;
47810;PMS5003;33575;52.600;7.318;2023-11-18T04:37:40;44;40;
47810;PMS5003;33575;52.600;7.318;2023-11-18T04:40:10;48;37;
47810;PMS5003;33575;52.600;7.318;2023-11-18T04:42:40;48;41;
47810;PMS5003;33575;52.600;7.318;2023-11-18T04:45:11;50;39;
47810;PMS5003;33575;52.600;7.318;2023-11-18T04:47:41;46;37;
47810;PMS5003;33575;52.600;7.318;2023-11-18T04:50:11;46;42;
47810;PMS5003;33575;52.600;7.318;2023-11-18T04:52:42;44;38;
47810;PMS5003;33575;52.600;7.318;2023-11-18T04:55:13;56;38;
47810;PMS5003;33575;52.600;7.318;2023-11-18T04:57:43;42;39;
47810;PMS5003;33575;52.600;7.318;2023-11-18T05:00:14;47;40;
47810;PMS5003;33575;52.600;7.318;2023-11-18T05:02:43;42;37;
47810;PMS5003;33575;52.600;7.318;2023-11-18T05:05:14;45;37;
47810;PMS5003;33575;52.600;7.318;2023-11-18T05:07:45;44;39;
47810;PMS5003;33575;52.600;7.318;2023-11-18T05:10:14;44;41;
47810;PMS5003;33575;52.600;7.318;2023-11-18T05:12:45;54;42;
47810;PMS5003;33575;52.600;7.318;2023-11-18T05:15:15;52;41;
47810;PMS5003;33575;52.600;7.318;2023-11-18T05:17:45;45;36;
47810;PMS5003;33575;52.600;7.318;2023-11-18T05:20:15;51;42;
47810;PMS5003;33575;52.600;7.318;2023-11-18T05:22:46;60;43;
47810;PMS5003;33575;52.600;7.318;2023-11-18T05:25:16;50;40;
47810;PMS5003;33575;52.600;7.318;2023-11-18T05:27:46;57;42;
47810;PMS5003;33575;52.600;7.318;2023-11-18T05:30:17;45;38;
47810;PMS5003;33575;52.600;7.318;2023-11-18T05:32:47;48;39;
47810;PMS5003;33575;52.600;7.318;2023-11-18T05:35:18;46;41;
47810;PMS5003;33575;52.600;7.318;2023-11-18T05:37:49;47;43;
47810;PMS5003;33575;52.600;7.318;2023-11-18T05:40:19;49;46;
47810;PMS5003;33575;52.600;7.318;2023-11-18T05:42:49;52;42;
47810;PMS5003;33575;52.600;7.318;2023-11-18T05:45:19;52;41;
47810;PMS5003;33575;52.600;7.318;2023-11-18T05:47:50;55;43;
47810;PMS5003;33575;52.600;7.318;2023-11-18T05:50:20;46;39;
47810;PMS5003;33575;52.600;7.318;2023-11-18T05:52:51;46;37;
47810;PMS5003;33575;52.600;7.318;2023-11-18T05:55:21;48;40;
47810;PMS5003;33575;52.600;7.318;2023-11-18T05:57:52;47;37;
47810;PMS5003;33575;52.600;7.318;2023-11-18T06:00:27;41;36;
47810;PMS5003;33575;52.600;7.318;2023-11-18T06:02:53;42;36;
47810;PMS5003;33575;52.600;7.318;2023-11-18T06:05:23;48;41;
47810;PMS5003;33575;52.600;7.318;2023-11-18T06:07:54;53;41;
47810;PMS5003;33575;52.600;7.318;2023-11-18T06:10:24;45;37;
47810;PMS5003;33575;52.600;7.318;2023-11-18T06:12:55;40;38;
47810;PMS5003;33575;52.600;7.318;2023-11-18T06:15:25;51;41;
47810;PMS5003;33575;52.600;7.318;2023-11-18T06:17:56;49;42;
47810;PMS5003;33575;52.600;7.318;2023-11-18T06:20:27;41;38;
47810;PMS5003;33575;52.600;7.318;2023-11-18T06:22:57;47;41;
47810;PMS5003;33575;52.600;7.318;2023-11-18T06:25:28;55;46;
47810;PMS5003;33575;52.600;7.318;2023-11-18T06:27:58;56;40;
47810;PMS5003;33575;52.600;7.318;2023-11-18T06:30:29;49;41;
47810;PMS5003;33575;52.600;7.318;2023-11-18T06:33:00;43;38;
47810;PMS5003;33575;52.600;7.318;2023-11-18T06:35:30;48;42;
47810;PMS5003;33575;52.600;7.318;2023-11-18T06:38:01;51;44;
47810;PMS5003;33575;52.600;7.318;2023-11-18T06:40:31;47;41;
47810;PMS5003;33575;52.600;7.318;2023-11-18T06:43:02;45;43;
47810;PMS5003;33575;52.600;7.318;2023-11-18T06:45:33;57;45;
47810;PMS5003;33575;52.600;7.318;2023-11-18T06:48:03;50;42;
47810;PMS5003;33575;52.600;7.318;2023-11-18T06:50:34;49;45;
47810;PMS5003;33575;52.600;7.318;2023-11-18T06:53:05;53;48;
47810;PMS5003;33575;52.600;7.318;2023-11-18T06:55:36;59;46;
47810;PMS5003;33575;52.600;7.318;2023-11-18T06:58:06;52;45;
47810;PMS5003;33575;52.600;7.318;2023-11-18T07:00:36;61;46;
47810;PMS5003;33575;52.600;7.318;2023-11-18T07:03:07;61;50;
47810;PMS5003;33575;52.600;7.318;2023-11-18T07:05:37;62;48;
47810;PMS5003;33575;52.600;7.318;2023-11-18T07:08:07;64;49;
47810;PMS5003;33575;52.600;7.318;2023-11-18T07:10:37;51;43;
47810;PMS5003;33575;52.600;7.318;2023-11-18T07:13:07;54;46;
47810;PMS5003;33575;52.600;7.318;2023-11-18T07:15:38;51;46;
47810;PMS5003;33575;52.600;7.318;2023-11-18T07:18:09;62;51;
47810;PMS5003;33575;52.600;7.318;2023-11-18T07:20:40;51;43;
47810;PMS5003;33575;52.600;7.318;2023-11-18T07:23:10;67;53;
47810;PMS5003;33575;52.600;7.318;2023-11-18T07:25:41;66;57;
47810;PMS5003;33575;52.600;7.318;2023-11-18T07:28:11;54;43;
47810;PMS5003;33575;52.600;7.318;2023-11-18T07:30:41;48;44;
47810;PMS5003;33575;52.600;7.318;2023-11-18T07:33:12;62;47;
47810;PMS5003;33575;52.600;7.318;2023-11-18T07:35:42;60;50;
47810;PMS5003;33575;52.600;7.318;2023-11-18T07:38:12;63;46;
47810;PMS5003;33575;52.600;7.318;2023-11-18T07:40:43;60;44;
47810;PMS5003;33575;52.600;7.318;2023-11-18T07:43:13;50;46;
47810;PMS5003;33575;52.600;7.318;2023-11-18T07:45:43;60;49;
47810;PMS5003;33575;52.600;7.318;2023-11-18T07:48:14;64;50;
47810;PMS5003;33575;52.600;7.318;2023-11-18T07:50:44;63;52;
47810;PMS5003;33575;52.600;7.318;2023-11-18T07:53:15;48;44;
47810;PMS5003;33575;52.600;7.318;2023-11-18T07:55:45;51;45;
47810;PMS5003;33575;52.600;7.318;2023-11-18T07:58:16;51;46;
47810;PMS5003;33575;52.600;7.318;2023-11-18T08:00:47;62;46;
47810;PMS5003;33575;52.600;7.318;2023-11-18T08:03:17;53;44;
47810;PMS5003;33575;52.600;7.318;2023-11-18T08:05:47;54;49;
47810;PMS5003;33575;52.600;7.318;2023-11-18T08:08:17;52;45;
47810;PMS5003;33575;52.600;7.318;2023-11-18T08:10:48;53;44;
47810;PMS5003;33575;52.600;7.318;2023-11-18T08:13:19;49;43;
47810;PMS5003;33575;52.600;7.318;2023-11-18T08:15:50;49;41;
47810;PMS5003;33575;52.600;7.318;2023-11-18T08:18:20;52;43;
47810;PMS5003;33575;52.600;7.318;2023-11-18T08:20:51;53;46;
47810;PMS5003;33575;52.600;7.318;2023-11-18T08:23:21;54;48;
47810;PMS5003;33575;52.600;7.318;2023-11-18T08:25:52;55;41;
47810;PMS5003;33575;52.600;7.318;2023-11-18T08:28:22;51;44;
47810;PMS5003;33575;52.600;7.318;2023-11-18T08:30:53;54;45;
47810;PMS5003;33575;52.600;7.318;2023-11-18T08:33:23;53;45;
47810;PMS5003;33575;52.600;7.318;2023-11-18T08:35:53;54;38;
47810;PMS5003;33575;52.600;7.318;2023-11-18T08:38:24;56;44;
47810;PMS5003;33575;52.600;7.318;2023-11-18T08:40:54;48;39;
47810;PMS5003;33575;52.600;7.318;2023-11-18T08:43:25;53;42;
47810;PMS5003;33575;52.600;7.318;2023-11-18T08:45:55;46;43;
47810;PMS5003;33575;52.600;7.318;2023-11-18T08:48:25;49;40;
47810;PMS5003;33575;52.600;7.318;2023-11-18T08:50:55;49;39;
47810;PMS5003;33575;52.600;7.318;2023-11-18T08:53:26;52;42;
47810;PMS5003;33575;52.600;7.318;2023-11-18T08:55:56;52;43;
47810;PMS5003;33575;52.600;7.318;2023-11-18T08:58:26;46;42;
47810;PMS5003;33575;52.600;7.318;2023-11-18T09:00:57;46;40;
47810;PMS5003;33575;52.600;7.318;2023-11-18T09:03:27;42;38;
47810;PMS5003;33575;52.600;7.318;2023-11-18T09:05:57;50;44;
47810;PMS5003;33575;52.600;7.318;2023-11-18T09:08:29;44;42;
47810;PMS5003;33575;52.600;7.318;2023-11-18T09:10:59;43;40;
47810;PMS5003;33575;52.600;7.318;2023-11-18T09:13:29;49;39;
47810;PMS5003;33575;52.600;7.318;2023-11-18T09:16:00;42;37;
47810;PMS5003;33575;52.600;7.318;2023-11-18T09:18:30;51;40;
47810;PMS5003;33575;52.600;7.318;2023-11-18T09:21:01;49;42;
47810;PMS5003;33575;52.600;7.318;2023-11-18T09:23:32;48;42;
47810;PMS5003;33575;52.600;7.318;2023-11-18T09:26:03;38;36;
47810;PMS5003;33575;52.600;7.318;2023-11-18T09:28:33;50;41;
47810;PMS5003;33575;52.600;7.318;2023-11-18T09:31:04;49;42;
47810;PMS5003;33575;52.600;7.318;2023-11-18T09:33:35;46;38;
47810;PMS5003;33575;52.600;7.318;2023-11-18T09:36:05;48;39;
47810;PMS5003;33575;52.600;7.318;2023-11-18T09:38:35;49;43;
47810;PMS5003;33575;52.600;7.318;2023-11-18T09:41:06;52;38;
47810;PMS5003;33575;52.600;7.318;2023-11-18T09:43:37;39;37;
47810;PMS5003;33575;52.600;7.318;2023-11-18T09:46:08;41;39;
47810;PMS5003;33575;52.600;7.318;2023-11-18T09:48:40;43;39;
47810;PMS5003;33575;52.600;7.318;2023-11-18T09:51:09;49;37;
47810;PMS5003;33575;52.600;7.318;2023-11-18T09:53:39;47;39;
47810;PMS5003;33575;52.600;7.318;2023-11-18T09:56:10;40;38;
47810;PMS5003;33575;52.600;7.318;2023-11-18T09:58:40;41;39;
47810;PMS5003;33575;52.600;7.318;2023-11-18T10:01:09;41;38;
47810;PMS5003;33575;52.600;7.318;2023-11-18T10:03:40;38;35;
47810;PMS5003;33575;52.600;7.318;2023-11-18T10:06:11;50;42;
47810;PMS5003;33575;52.600;7.318;2023-11-18T10:08:41;43;37;
47810;PMS5003;33575;52.600;7.318;2023-11-18T10:11:12;45;38;
47810;PMS5003;33575;52.600;7.318;2023-11-18T10:13:42;42;36;
47810;PMS5003;33575;52.600;7.318;2023-11-18T10:16:13;46;42;
47810;PMS5003;33575;52.600;7.318;2023-11-18T10:18:43;40;39;
47810;PMS5003;33575;52.600;7.318;2023-11-18T10:21:13;55;37;
47810;PMS5003;33575;52.600;7.318;2023-11-18T10:26:14;42;35;
47810;PMS5003;33575;52.600;7.318;2023-11-18T10:28:44;44;38;
47810;PMS5003;33575;52.600;7.318;2023-11-18T10:31:18;40;37;
47810;PMS5003;33575;52.600;7.318;2023-11-18T10:33:45;32;30;
47810;PMS5003;33575;52.600;7.318;2023-11-18T10:36:17;36;34;
47810;PMS5003;33575;52.600;7.318;2023-11-18T10:38:46;49;38;
47810;PMS5003;33575;52.600;7.318;2023-11-18T10:41:16;41;35;
47810;PMS5003;33575;52.600;7.318;2023-11-18T10:43:46;48;37;
47810;PMS5003;33575;52.600;7.318;2023-11-18T10:46:16;47;40;
47810;PMS5003;33575;52.600;7.318;2023-11-18T10:48:47;44;34;
47810;PMS5003;33575;52.600;7.318;2023-11-18T10:51:18;38;36;
47810;PMS5003;33575;52.600;7.318;2023-11-18T10:53:48;40;34;
47810;PMS5003;33575;52.600;7.318;2023-11-18T10:56:18;42;38;
47810;PMS5003;33575;52.600;7.318;2023-11-18T10:58:48;40;35;
47810;PMS5003;33575;52.600;7.318;2023-11-18T11:03:52;37;30;
47810;PMS5003;33575;52.600;7.318;2023-11-18T11:06:20;38;33;
47810;PMS5003;33575;52.600;7.318;2023-11-18T11:08:51;43;40;
47810;PMS5003;33575;52.600;7.318;2023-11-18T11:11:22;36;34;
47810;PMS5003;33575;52.600;7.318;2023-11-18T11:13:53;38;31;
47810;PMS5003;33575;52.600;7.318;2023-11-18T11:16:23;40;34;
47810;PMS5003;33575;52.600;7.318;2023-11-18T11:18:53;36;33;
47810;PMS5003;33575;52.600;7.318;2023-11-18T11:21:24;36;33;
47810;PMS5003;33575;52.600;7.318;2023-11-18T11:23:54;42;35;
47810;PMS5003;33575;52.600;7.318;2023-11-18T11:26:28;41;32;
47810;PMS5003;33575;52.600;7.318;2023-11-18T11:28:56;38;33;
47810;PMS5003;33575;52.600;7.318;2023-11-18T11:31:28;39;34;
47810;PMS5003;33575;52.600;7.318;2023-11-18T11:33:55;52;48;
47810;PMS5003;33575;52.600;7.318;2023-11-18T11:36:28;34;28;
47810;PMS5003;33575;52.600;7.318;2023-11-18T11:38:56;37;28;
47810;PMS5003;33575;52.600;7.318;2023-11-18T11:41:27;42;36;
47810;PMS5003;33575;52.600;7.318;2023-11-18T11:43:57;40;32;
47810;PMS5003;33575;52.600;7.318;2023-11-18T11:46:28;50;39;
47810;PMS5003;33575;52.600;7.318;2023-11-18T11:48:59;45;36;
47810;PMS5003;33575;52.600;7.318;2023-11-18T11:51:30;36;33;
47810;PMS5003;33575;52.600;7.318;2023-11-18T11:54:01;42;34;
47810;PMS5003;33575;52.600;7.318;2023-11-18T11:59:00;33;29;
47810;PMS5003;33575;52.600;7.318;2023-11-18T12:01:33;44;33;
47810;PMS5003;33575;52.600;7.318;2023-11-18T12:04:02;36;30;
47810;PMS5003;33575;52.600;7.318;2023-11-18T12:06:32;40;32;
47810;PMS5003;33575;52.600;7.318;2023-11-18T12:09:03;38;31;
47810;PMS5003;33575;52.600;7.318;2023-11-18T12:11:33;34;27;
47810;PMS5003;33575;52.600;7.318;2023-11-18T12:14:04;33;31;
47810;PMS5003;33575;52.600;7.318;2023-11-18T12:26:37;41;31;
47810;PMS5003;33575;52.600;7.318;2023-11-18T12:31:39;42;32;
47810;PMS5003;33575;52.600;7.318;2023-11-18T12:34:08;36;31;
47810;PMS5003;33575;52.600;7.318;2023-11-18T12:41:40;33;29;
47810;PMS5003;33575;52.600;7.318;2023-11-18T12:46:47;38;32;
47810;PMS5003;33575;52.600;7.318;2023-11-18T12:49:13;38;30;
47810;PMS5003;33575;52.600;7.318;2023-11-18T12:51:42;30;28;
47810;PMS5003;33575;52.600;7.318;2023-11-18T12:54:12;39;32;
47810;PMS5003;33575;52.600;7.318;2023-11-18T12:56:42;40;32;
47810;PMS5003;33575;52.600;7.318;2023-11-18T12:59:13;31;27;
47810;PMS5003;33575;52.600;7.318;2023-11-18T13:01:44;28;27;
47810;PMS5003;33575;52.600;7.318;2023-11-18T13:04:14;39;34;
47810;PMS5003;33575;52.600;7.318;2023-11-18T13:06:44;30;28;
47810;PMS5003;33575;52.600;7.318;2023-11-18T13:09:15;36;28;
47810;PMS5003;33575;52.600;7.318;2023-11-18T13:11:45;41;30;
47810;PMS5003;33575;52.600;7.318;2023-11-18T13:14:15;31;28;
47810;PMS5003;33575;52.600;7.318;2023-11-18T13:16:46;32;27;
47810;PMS5003;33575;52.600;7.318;2023-11-18T13:21:46;29;26;
47810;PMS5003;33575;52.600;7.318;2023-11-18T13:24:16;34;25;
47810;PMS5003;33575;52.600;7.318;2023-11-18T13:26:47;28;23;
47810;PMS5003;33575;52.600;7.318;2023-11-18T13:29:17;32;29;
47810;PMS5003;33575;52.600;7.318;2023-11-18T13:31:48;25;24;
47810;PMS5003;33575;52.600;7.318;2023-11-18T13:34:19;26;24;
47810;PMS5003;33575;52.600;7.318;2023-11-18T13:36:49;22;21;
47810;PMS5003;33575;52.600;7.318;2023-11-18T13:39:19;26;25;
47810;PMS5003;33575;52.600;7.318;2023-11-18T13:41:50;23;23;
47810;PMS5003;33575;52.600;7.318;2023-11-18T13:46:50;21;21;
47810;PMS5003;33575;52.600;7.318;2023-11-18T13:49:20;31;25;
47810;PMS5003;33575;52.600;7.318;2023-11-18T13:51:51;25;23;
47810;PMS5003;33575;52.600;7.318;2023-11-18T13:54:21;26;25;
47810;PMS5003;33575;52.600;7.318;2023-11-18T13:56:51;104;49;
47810;PMS5003;33575;52.600;7.318;2023-11-18T13:59:22;24;23;
47810;PMS5003;33575;52.600;7.318;2023-11-18T14:01:53;23;21;
47810;PMS5003;33575;52.600;7.318;2023-11-18T14:04:23;22;22;
47810;PMS5003;33575;52.600;7.318;2023-11-18T14:06:56;26;24;
47810;PMS5003;33575;52.600;7.318;2023-11-18T14:09:24;22;19;
47810;PMS5003;33575;52.600;7.318;2023-11-18T14:11:54;22;22;
47810;PMS5003;33575;52.600;7.318;2023-11-18T14:14:25;20;19;
47810;PMS5003;33575;52.600;7.318;2023-11-18T14:16:56;27;22;
47810;PMS5003;33575;52.600;7.318;2023-11-18T14:19:26;20;19;
47810;PMS5003;33575;52.600;7.318;2023-11-18T14:21:57;28;25;
47810;PMS5003;33575;52.600;7.318;2023-11-18T14:24:27;24;24;
47810;PMS5003;33575;52.600;7.318;2023-11-18T14:26:58;22;21;
47810;PMS5003;33575;52.600;7.318;2023-11-18T14:29:30;22;20;
47810;PMS5003;33575;52.600;7.318;2023-11-18T14:31:59;24;20;
47810;PMS5003;33575;52.600;7.318;2023-11-18T14:34:30;19;18;
47810;PMS5003;33575;52.600;7.318;2023-11-18T14:37:00;20;19;
47810;PMS5003;33575;52.600;7.318;2023-11-18T14:39:30;23;20;
47810;PMS5003;33575;52.600;7.318;2023-11-18T14:42:01;30;23;
47810;PMS5003;33575;52.600;7.318;2023-11-18T14:44:32;24;21;
47810;PMS5003;33575;52.600;7.318;2023-11-18T14:47:02;24;22;
47810;PMS5003;33575;52.600;7.318;2023-11-18T14:49:32;19;19;
47810;PMS5003;33575;52.600;7.318;2023-11-18T14:52:03;27;26;
47810;PMS5003;33575;52.600;7.318;2023-11-18T14:54:34;20;20;
47810;PMS5003;33575;52.600;7.318;2023-11-18T14:57:04;30;22;
47810;PMS5003;33575;52.600;7.318;2023-11-18T14:59:35;19;19;
47810;PMS5003;33575;52.600;7.318;2023-11-18T15:02:05;24;22;
47810;PMS5003;33575;52.600;7.318;2023-11-18T15:04:36;21;20;
47810;PMS5003;33575;52.600;7.318;2023-11-18T15:07:06;20;17;
47810;PMS5003;33575;52.600;7.318;2023-11-18T15:09:37;27;20;
47810;PMS5003;33575;52.600;7.318;2023-11-18T15:12:08;21;20;
47810;PMS5003;33575;52.600;7.318;2023-11-18T15:14:41;20;20;
47810;PMS5003;33575;52.600;7.318;2023-11-18T15:17:09;21;19;
47810;PMS5003;33575;52.600;7.318;2023-11-18T15:19:39;26;21;
47810;PMS5003;33575;52.600;7.318;2023-11-18T15:22:10;18;18;
47810;PMS5003;33575;52.600;7.318;2023-11-18T15:24:40;18;18;
47810;PMS5003;33575;52.600;7.318;2023-11-18T15:27:10;20;18;
47810;PMS5003;33575;52.600;7.318;2023-11-18T15:29:40;27;22;
47810;PMS5003;33575;52.600;7.318;2023-11-18T15:32:11;19;18;
47810;PMS5003;33575;52.600;7.318;2023-11-18T15:34:41;19;17;
47810;PMS5003;33575;52.600;7.318;2023-11-18T15:37:12;19;18;
47810;PMS5003;33575;52.600;7.318;2023-11-18T15:39:43;19;15;
47810;PMS5003;33575;52.600;7.318;2023-11-18T15:42:13;17;15;
47810;PMS5003;33575;52.600;7.318;2023-11-18T15:44:44;12;11;
47810;PMS5003;33575;52.600;7.318;2023-11-18T15:47:15;13;12;
47810;PMS5003;33575;52.600;7.318;2023-11-18T15:49:45;13;13;
47810;PMS5003;33575;52.600;7.318;2023-11-18T15:52:16;11;11;
47810;PMS5003;33575;52.600;7.318;2023-11-18T15:54:47;11;10;
47810;PMS5003;33575;52.600;7.318;2023-11-18T15:57:17;11;10;
47810;PMS5003;33575;52.600;7.318;2023-11-18T15:59:48;10;9;
47810;PMS5003;33575;52.600;7.318;2023-11-18T16:02:19;8;7;
47810;PMS5003;33575;52.600;7.318;2023-11-18T16:04:50;8;8;
47810;PMS5003;33575;52.600;7.318;2023-11-18T16:07:20;8;8;
47810;PMS5003;33575;52.600;7.318;2023-11-18T16:09:51;10;9;
47810;PMS5003;33575;52.600;7.318;2023-11-18T16:12:22;8;8;
47810;PMS5003;33575;52.600;7.318;2023-11-18T16:14:52;7;7;
47810;PMS5003;33575;52.600;7.318;2023-11-18T16:17:23;7;7;
47810;PMS5003;33575;52.600;7.318;2023-11-18T16:19:54;8;8;
47810;PMS5003;33575;52.600;7.318;2023-11-18T16:22:24;8;6;
47810;PMS5003;33575;52.600;7.318;2023-11-18T16:24:55;9;8;
47810;PMS5003;33575;52.600;7.318;2023-11-18T16:27:26;9;9;
47810;PMS5003;33575;52.600;7.318;2023-11-18T16:29:57;7;7;
47810;PMS5003;33575;52.600;7.318;2023-11-18T16:32:27;7;7;
47810;PMS5003;33575;52.600;7.318;2023-11-18T16:34:58;10;9;
47810;PMS5003;33575;52.600;7.318;2023-11-18T16:37:29;10;10;
47810;PMS5003;33575;52.600;7.318;2023-11-18T16:39:59;8;8;
47810;PMS5003;33575;52.600;7.318;2023-11-18T16:42:30;10;9;
47810;PMS5003;33575;52.600;7.318;2023-11-18T16:45:01;7;7;
47810;PMS5003;33575;52.600;7.318;2023-11-18T16:47:32;9;9;
47810;PMS5003;33575;52.600;7.318;2023-11-18T16:50:05;9;9;
47810;PMS5003;33575;52.600;7.318;2023-11-18T16:52:33;9;8;
47810;PMS5003;33575;52.600;7.318;2023-11-18T16:55:04;9;8;
47810;PMS5003;33575;52.600;7.318;2023-11-18T16:57:34;8;8;
47810;PMS5003;33575;52.600;7.318;2023-11-18T17:00:06;8;8;
47810;PMS5003;33575;52.600;7.318;2023-11-18T17:02:36;10;9;
47810;PMS5003;33575;52.600;7.318;2023-11-18T17:05:07;9;9;
47810;PMS5003;33575;52.600;7.318;2023-11-18T17:07:37;10;9;
47810;PMS5003;33575;52.600;7.318;2023-11-18T17:10:08;10;10;
47810;PMS5003;33575;52.600;7.318;2023-11-18T17:12:39;8;8;